Time;durP1;ratioP1;P1;durP2;ratioP2;P2;SDS_P1;SDS_P2;PMS_P1;PMS_P2;Temp;Humidity;BMP_temperature;BMP_pressure;BME280_temperature;BME280_humidity;BME280_pressure;Samples;Min_cycle;Max_cycle;Signal;HPM_P1;HPM_P2
2022/10/04 10:07:12;;;;;;;15.45;14.30;;;17.60;99.90;;;;;;5172216;27;20347;-73
2022/10/04 10:16:08;;;;;;;13.13;12.18;;;14.90;99.90;;;;;;5178170;22;20048;-76
2022/10/04 10:18:52;;;;;;;11.85;11.02;;;15.00;99.90;;;;;;5131304;27;20036;-77
2022/10/04 10:21:35;;;;;;;11.70;10.98;;;15.10;99.90;;;;;;5133245;27;20078;-74
2022/10/04 10:24:16;;;;;;;11.80;11.05;;;15.30;99.90;;;;;;5132831;27;20085;-75
2022/10/04 10:26:48;;;;;;;10.80;10.10;;;15.40;99.90;;;;;;5132405;27;20748;-76
2022/10/04 10:29:25;;;;;;;11.98;11.13;;;15.50;99.90;;;;;;5131281;27;20039;-76
2022/10/04 10:32:21;;;;;;;10.63;9.98;;;15.70;99.90;;;;;;5132439;27;20039;-76
2022/10/04 10:35:13;;;;;;;9.98;9.38;;;16.00;99.90;;;;;;5132033;27;20471;-76
2022/10/04 10:37:44;;;;;;;9.82;9.13;;;16.00;99.90;;;;;;5131010;27;20090;-76
2022/10/04 10:40:42;;;;;;;10.50;9.82;;;16.30;99.90;;;;;;5132369;27;20099;-76
2022/10/04 10:43:48;;;;;;;10.82;9.85;;;16.40;99.90;;;;;;5131150;27;20028;-77
2022/10/04 10:46:27;;;;;;;10.20;9.60;;;16.40;99.90;;;;;;5130631;27;20264;-76
2022/10/04 10:49:23;;;;;;;9.98;9.27;;;16.50;99.90;;;;;;5132355;27;20043;-77
2022/10/04 10:52:24;;;;;;;9.80;9.10;;;16.80;99.90;;;;;;5132533;27;20544;-76
2022/10/04 10:55:27;;;;;;;10.07;9.45;;;17.10;99.90;;;;;;5130220;27;20476;-76
2022/10/04 10:57:56;;;;;;;10.00;9.30;;;17.30;99.90;;;;;;5132551;27;20483;-76
2022/10/04 11:00:30;;;;;;;10.07;9.23;;;17.30;99.90;;;;;;5132116;27;20497;-76
2022/10/04 11:03:15;;;;;;;10.05;9.43;;;17.20;99.90;;;;;;5132043;27;20067;-76
2022/10/04 11:06:17;;;;;;;9.40;8.80;;;17.40;99.90;;;;;;5131595;27;20448;-76
2022/10/04 11:09:20;;;;;;;10.00;9.35;;;17.30;99.90;;;;;;5129193;27;20130;-76
2022/10/04 11:12:04;;;;;;;10.30;9.65;;;17.20;99.90;;;;;;5131787;27;20493;-76
2022/10/04 11:14:53;;;;;;;11.15;10.45;;;17.10;99.90;;;;;;5130352;27;20991;-76
2022/10/04 11:17:32;;;;;;;143.10;38.72;;;17.50;99.90;;;;;;5121713;27;20028;-76
2022/10/04 11:20:08;;;;;;;12.63;11.82;;;17.80;99.90;;;;;;5116070;28;20594;-76
2022/10/04 11:23:32;;;;;;;19.23;14.55;;;18.10;99.90;;;;;;5118298;27;20060;-78
2022/10/04 11:26:19;;;;;;;159.35;51.50;;;18.40;99.90;;;;;;5036680;28;20060;-75
2022/10/04 11:28:51;;;;;;;11.60;10.90;;;18.80;99.90;;;;;;5113736;27;20477;-78
2022/10/04 11:31:36;;;;;;;10.32;9.73;;;18.80;99.90;;;;;;5118122;27;20114;-75
2022/10/04 11:34:38;;;;;;;11.18;10.48;;;18.40;99.90;;;;;;5118302;28;20043;-77
2022/10/04 11:37:21;;;;;;;12.52;11.73;;;18.50;99.90;;;;;;5115955;28;20107;-77
2022/10/04 11:40:19;;;;;;;75.43;69.47;;;18.70;99.90;;;;;;5116566;28;20039;-77
2022/10/04 11:43:02;;;;;;;11.77;11.10;;;18.70;99.90;;;;;;5117738;27;20020;-78
2022/10/04 11:45:45;;;;;;;12.50;11.48;;;18.60;99.90;;;;;;5115463;28;20032;-77
2022/10/04 11:48:26;;;;;;;12.10;11.20;;;18.50;99.90;;;;;;5117370;28;20039;-77
2022/10/04 11:51:27;;;;;;;11.45;10.75;;;18.20;99.90;;;;;;5116266;28;20036;-76
2022/10/04 11:54:02;;;;;;;11.45;10.85;;;18.00;99.90;;;;;;5117650;27;20114;-76
2022/10/04 11:56:32;;;;;;;11.52;10.82;;;18.00;99.90;;;;;;5117698;28;20115;-83
2022/10/04 11:59:42;;;;;;;12.15;11.45;;;18.00;99.90;;;;;;5118874;28;20032;-82
2022/10/04 12:02:33;;;;;;;11.40;10.68;;;18.10;99.90;;;;;;5067216;28;20040;-79
2022/10/04 12:05:22;;;;;;;12.52;11.93;;;18.40;99.90;;;;;;5065201;28;20430;-77
2022/10/04 12:08:03;;;;;;;12.30;11.60;;;18.70;99.90;;;;;;5097336;28;20047;-78
2022/10/04 12:10:35;;;;;;;12.20;11.57;;;18.80;99.90;;;;;;5122332;28;20090;-79
2022/10/04 12:13:09;;;;;;;12.68;11.98;;;18.90;99.90;;;;;;5127384;28;20127;-79
2022/10/04 12:16:26;;;;;;;12.10;11.40;;;19.10;99.90;;;;;;5121725;27;20035;-78
2022/10/04 12:19:00;;;;;;;11.98;11.38;;;19.40;99.90;;;;;;5123057;27;20093;-80
2022/10/04 12:21:49;;;;;;;15.50;14.60;;;19.70;99.90;;;;;;5125298;27;20036;-78
2022/10/04 12:24:25;;;;;;;16.27;15.48;;;19.70;99.90;;;;;;5127054;27;20062;-79
2022/10/04 12:27:24;;;;;;;15.65;14.85;;;19.90;99.90;;;;;;5125890;28;20341;-79
2022/10/04 12:30:22;;;;;;;30.48;28.92;;;20.00;99.90;;;;;;5124475;28;20052;-79
2022/10/04 12:33:02;;;;;;;112.13;77.85;;;19.70;99.90;;;;;;5120982;28;20028;-78
2022/10/04 12:35:27;;;;;;;45.40;43.10;;;19.50;99.90;;;;;;5119672;27;20020;-78
2022/10/04 12:38:37;;;;;;;44.00;41.90;;;19.40;99.90;;;;;;5119288;28;20032;-77
2022/10/04 12:41:23;;;;;;;46.15;43.72;;;19.60;99.90;;;;;;5119874;28;20016;-77
2022/10/04 12:44:25;;;;;;;49.42;47.00;;;19.60;99.90;;;;;;5119436;28;20030;-78
2022/10/04 12:47:20;;;;;;;51.88;49.33;;;19.60;99.90;;;;;;5118487;28;20051;-77
2022/10/04 12:50:08;;;;;;;48.45;46.03;;;19.60;99.90;;;;;;5116903;27;20028;-76
2022/10/04 12:53:09;;;;;;;51.35;48.58;;;19.50;99.90;;;;;;5118349;28;20047;-77
2022/10/04 12:55:47;;;;;;;15.32;14.43;;;19.50;99.90;;;;;;5123925;28;41033;-77
2022/10/04 12:58:20;;;;;;;13.18;12.57;;;19.50;99.90;;;;;;5124586;28;20036;-77
2022/10/04 13:00:47;;;;;;;13.80;12.90;;;19.50;99.90;;;;;;5118332;28;20102;-77
2022/10/04 13:03:32;;;;;;;13.57;12.88;;;19.60;99.90;;;;;;5115071;28;20042;-76
2022/10/04 13:06:04;;;;;;;13.52;12.73;;;19.70;99.90;;;;;;5116639;28;20121;-76
2022/10/04 13:08:48;;;;;;;12.85;12.15;;;19.80;99.90;;;;;;5114590;28;20481;-74
2022/10/04 13:11:38;;;;;;;13.40;12.60;;;19.70;99.90;;;;;;5116482;27;20036;-75
2022/10/04 13:14:29;;;;;;;12.80;12.18;;;19.80;99.90;;;;;;5114977;28;20036;-75
2022/10/04 13:17:33;;;;;;;12.73;12.00;;;19.80;99.90;;;;;;5116125;27;20113;-75
2022/10/04 13:20:25;;;;;;;13.07;12.38;;;19.90;99.90;;;;;;5094124;27;20472;-74
2022/10/04 13:23:07;;;;;;;16.65;15.77;;;19.60;99.90;;;;;;5116143;27;20086;-73
2022/10/04 13:25:55;;;;;;;13.82;13.13;;;19.60;99.90;;;;;;5115594;27;20032;-74
2022/10/04 13:28:30;;;;;;;13.38;12.65;;;19.80;99.90;;;;;;5115347;27;20066;-73
2022/10/04 13:31:23;;;;;;;13.63;12.82;;;19.80;99.90;;;;;;5115940;27;20059;-73
2022/10/04 13:33:58;;;;;;;14.27;13.48;;;19.80;99.90;;;;;;5111202;28;20060;-73
2022/10/04 13:36:58;;;;;;;13.43;12.68;;;19.50;99.90;;;;;;5115402;27;20036;-73
2022/10/04 13:39:51;;;;;;;14.10;13.30;;;19.50;99.90;;;;;;5114920;27;20485;-73
2022/10/04 13:42:39;;;;;;;14.52;13.77;;;19.50;99.90;;;;;;5115727;27;20409;-73
2022/10/04 13:45:18;;;;;;;14.00;13.30;;;19.50;99.90;;;;;;5115105;27;20032;-73
2022/10/04 13:48:11;;;;;;;14.02;13.25;;;19.60;99.90;;;;;;5113886;28;20028;-74
2022/10/04 13:50:41;;;;;;;15.30;14.50;;;19.40;99.90;;;;;;5115629;27;20083;-73
2022/10/04 13:58:56;;;;;;;15.45;14.73;;;19.30;99.90;;;;;;5112711;28;20037;-76
2022/10/04 14:01:40;;;;;;;15.50;14.60;;;19.30;99.90;;;;;;5115727;27;20305;-73
2022/10/04 14:04:24;;;;;;;15.80;15.00;;;19.40;99.90;;;;;;5115317;27;20024;-76
2022/10/04 14:07:29;;;;;;;15.48;14.52;;;19.60;99.90;;;;;;5115024;28;20032;-74
2022/10/04 14:10:28;;;;;;;15.35;14.55;;;19.60;99.90;;;;;;5115463;28;20115;-73
2022/10/04 14:13:04;;;;;;;15.75;14.95;;;19.70;99.90;;;;;;5114118;28;20032;-74
2022/10/04 14:15:54;;;;;;;15.57;14.73;;;19.80;99.90;;;;;;5115184;27;20028;-74
2022/10/04 14:18:42;;;;;;;15.38;14.60;;;19.90;99.90;;;;;;5115452;27;20516;-75
2022/10/04 14:21:13;;;;;;;15.18;14.38;;;20.80;99.90;;;;;;5113808;28;20036;-74
2022/10/04 14:24:17;;;;;;;14.27;13.48;;;22.30;99.90;;;;;;5113859;28;20035;-75
2022/10/04 14:26:42;;;;;;;15.13;14.23;;;24.00;99.40;;;;;;5125328;27;20036;-75
2022/10/04 14:29:19;;;;;;;14.50;13.70;;;24.90;95.60;;;;;;5133957;27;20034;-75
2022/10/04 14:32:19;;;;;;;12.55;11.85;;;25.90;94.00;;;;;;5135344;27;20036;-75
2022/10/04 14:35:03;;;;;;;11.00;10.35;;;26.20;91.80;;;;;;5133687;27;20028;-75
2022/10/04 14:37:48;;;;;;;12.45;11.85;;;27.30;87.80;;;;;;5137879;27;20518;-77
2022/10/04 14:40:31;;;;;;;11.50;10.85;;;28.00;85.60;;;;;;5137527;27;20102;-78
2022/10/04 14:43:00;;;;;;;11.60;10.90;;;28.30;78.60;;;;;;5137935;27;20497;-77
2022/10/04 14:45:36;;;;;;;11.60;10.90;;;28.10;75.40;;;;;;5135364;27;20453;-78
2022/10/04 14:48:20;;;;;;;10.70;10.10;;;27.80;78.80;;;;;;5138016;27;20097;-78
2022/10/04 14:51:18;;;;;;;12.90;12.20;;;28.30;77.90;;;;;;5136452;27;20053;-78
2022/10/04 14:54:24;;;;;;;17.13;16.23;;;28.90;73.90;;;;;;5146393;27;20024;-78
2022/10/04 14:57:18;;;;;;;15.90;14.80;;;29.10;75.10;;;;;;5063239;28;20140;-78
2022/10/04 14:59:54;;;;;;;15.05;14.18;;;29.20;72.10;;;;;;5150878;27;20023;-78
2022/10/04 15:02:30;;;;;;;16.15;15.18;;;28.60;69.80;;;;;;5150124;27;20065;-79
2022/10/04 15:05:30;;;;;;;16.80;15.90;;;29.10;69.20;;;;;;5147603;27;20394;-78
2022/10/04 15:08:23;;;;;;;16.15;15.35;;;28.90;67.70;;;;;;5152615;27;20053;-79
2022/10/04 15:10:53;;;;;;;16.38;15.57;;;29.70;68.30;;;;;;5143694;27;20110;-78
2022/10/04 15:13:39;;;;;;;17.80;16.83;;;29.90;67.10;;;;;;5140670;27;20370;-78
2022/10/04 15:16:14;;;;;;;17.10;16.30;;;29.30;68.90;;;;;;5139552;27;20063;-78
2022/10/04 15:19:04;;;;;;;16.48;15.57;;;28.50;70.60;;;;;;5143662;27;20027;-78
2022/10/04 15:21:51;;;;;;;16.45;15.65;;;29.70;68.70;;;;;;5141579;27;20497;-79
2022/10/04 15:24:17;;;;;;;17.60;16.70;;;29.60;68.10;;;;;;5139459;27;20035;-78
2022/10/04 15:26:57;;;;;;;16.27;15.48;;;30.60;66.00;;;;;;5139575;27;20413;-79
2022/10/04 15:29:53;;;;;;;18.10;17.20;;;29.70;67.80;;;;;;5140942;27;20035;-79
2022/10/04 15:32:24;;;;;;;19.33;18.33;;;30.30;65.70;;;;;;5141508;27;20039;-78
2022/10/04 15:34:53;;;;;;;17.58;16.77;;;30.00;66.60;;;;;;5140354;27;20030;-78
2022/10/04 15:37:33;;;;;;;17.52;16.63;;;28.50;68.90;;;;;;5139979;27;20755;-79
2022/10/04 15:40:01;;;;;;;18.58;17.67;;;28.90;69.80;;;;;;5139538;27;20479;-80
2022/10/04 15:42:35;;;;;;;19.25;18.15;;;28.90;69.90;;;;;;5139775;27;20565;-79
2022/10/04 15:45:16;;;;;;;18.33;17.38;;;28.90;70.60;;;;;;5140290;27;20085;-82
2022/10/04 15:48:22;;;;;;;17.20;16.30;;;28.20;70.30;;;;;;5139513;27;20031;-81
2022/10/04 15:51:10;;;;;;;21.65;20.35;;;27.20;73.50;;;;;;5141413;27;20036;-80
2022/10/04 15:54:22;;;;;;;17.60;16.60;;;25.50;79.50;;;;;;5141252;27;20518;-79
2022/10/04 15:56:54;;;;;;;16.42;15.40;;;23.90;83.30;;;;;;5056159;28;20088;-79
2022/10/04 16:00:02;;;;;;;18.65;17.23;;;22.80;89.20;;;;;;5041496;28;20038;-79
2022/10/04 16:02:49;;;;;;;13.40;12.50;;;22.20;91.00;;;;;;5108627;27;20052;-79
2022/10/04 16:05:35;;;;;;;13.82;12.90;;;21.60;93.20;;;;;;5120486;28;20061;-78
2022/10/04 16:08:03;;;;;;;15.65;14.77;;;20.90;94.80;;;;;;5119208;27;20028;-79
2022/10/04 16:10:51;;;;;;;17.48;16.48;;;20.70;95.30;;;;;;5119031;28;20521;-79
2022/10/04 16:13:16;;;;;;;21.95;20.65;;;20.50;96.40;;;;;;5115782;28;20579;-78
2022/10/04 16:15:48;;;;;;;26.33;24.83;;;19.90;97.20;;;;;;5140727;22;20139;-80
2022/10/04 16:18:43;;;;;;;13.93;12.82;;;19.30;98.30;;;;;;5117631;28;20036;-75
2022/10/04 16:21:17;;;;;;;14.38;13.57;;;18.50;99.90;;;;;;5095828;28;20045;-74
2022/10/04 16:23:44;;;;;;;14.65;13.55;;;17.90;99.90;;;;;;5096767;28;20493;-74
2022/10/04 16:26:32;;;;;;;12.27;11.48;;;17.40;99.90;;;;;;5094989;28;20182;-74
2022/10/04 16:29:29;;;;;;;16.13;15.13;;;17.00;99.90;;;;;;5117134;27;20536;-74
2022/10/04 16:32:03;;;;;;;13.27;12.40;;;16.50;99.90;;;;;;5115211;28;20543;-73
2022/10/04 16:34:44;;;;;;;19.42;18.17;;;16.10;99.90;;;;;;5106179;27;20564;-73
2022/10/04 16:37:34;;;;;;;21.10;19.90;;;15.80;99.90;;;;;;5121155;27;20066;-73
2022/10/04 16:40:11;;;;;;;21.23;20.00;;;15.40;99.90;;;;;;5096527;28;20025;-73
2022/10/04 16:42:58;;;;;;;23.02;21.73;;;15.20;99.90;;;;;;5096351;28;20444;-73
2022/10/04 16:45:53;;;;;;;26.63;25.05;;;14.90;99.90;;;;;;5096187;28;20746;-73
2022/10/04 16:48:45;;;;;;;31.98;30.20;;;14.70;99.90;;;;;;5102549;27;20108;-73
2022/10/04 16:51:16;;;;;;;26.83;25.23;;;14.50;99.90;;;;;;5125705;27;20036;-72
2022/10/04 16:54:09;;;;;;;155.02;146.32;;;14.30;99.90;;;;;;5123161;27;20036;-72
2022/10/04 16:56:56;;;;;;;39.00;36.90;;;14.10;99.90;;;;;;5125891;27;20118;-72
2022/10/04 16:59:37;;;;;;;39.20;37.00;;;14.00;99.90;;;;;;5110362;27;20053;-71
2022/10/04 17:02:37;;;;;;;34.95;33.00;;;13.90;99.90;;;;;;5123129;27;20031;-71
2022/10/04 17:05:24;;;;;;;35.33;33.42;;;13.70;99.90;;;;;;5122496;27;20036;-71
2022/10/04 17:08:14;;;;;;;46.00;43.42;;;13.50;99.90;;;;;;5124932;27;20116;-71
2022/10/04 17:10:48;;;;;;;39.28;37.17;;;13.30;99.90;;;;;;5122288;27;20032;-72
2022/10/04 17:13:28;;;;;;;49.58;46.90;;;13.20;99.90;;;;;;5124470;27;20102;-71
2022/10/04 17:16:10;;;;;;;62.75;59.20;;;13.10;99.90;;;;;;5123045;27;20040;-71
2022/10/04 17:19:11;;;;;;;62.63;59.22;;;13.00;99.90;;;;;;5124323;27;20493;-71
2022/10/04 17:22:13;;;;;;;60.25;56.78;;;13.00;99.90;;;;;;5126502;27;20062;-71
2022/10/04 17:24:51;;;;;;;51.15;48.20;;;12.90;99.90;;;;;;5094488;27;20040;-71
2022/10/04 17:27:52;;;;;;;51.80;48.15;;;12.80;99.90;;;;;;5124094;27;20047;-71
2022/10/04 17:30:26;;;;;;;44.55;40.83;;;12.70;99.90;;;;;;5126203;27;20097;-72
2022/10/04 17:33:16;;;;;;;368.75;78.20;;;12.50;99.90;;;;;;5126060;27;20028;-71
2022/10/04 17:36:18;;;;;;;47.47;44.63;;;12.40;99.90;;;;;;5095259;28;20039;-72
2022/10/04 17:38:52;;;;;;;34.05;31.85;;;12.30;99.90;;;;;;5062236;28;20044;-72
2022/10/04 17:41:35;;;;;;;40.17;37.60;;;12.20;99.90;;;;;;5095299;28;20098;-71
2022/10/04 17:44:03;;;;;;;34.92;32.67;;;12.10;99.90;;;;;;5094885;28;20084;-71
2022/10/04 17:46:39;;;;;;;41.83;38.92;;;12.00;99.90;;;;;;5094177;28;20409;-71
2022/10/04 17:55:16;;;;;;;37.92;35.40;;;11.80;99.90;;;;;;5093674;28;20107;-70
2022/10/04 17:57:52;;;;;;;36.90;33.90;;;11.80;99.90;;;;;;5094922;28;20050;-71
2022/10/04 18:00:23;;;;;;;38.40;35.42;;;11.70;99.90;;;;;;5095194;28;20159;-70
2022/10/04 18:03:21;;;;;;;40.50;37.70;;;11.60;99.90;;;;;;5094803;28;20154;-71
2022/10/04 18:05:53;;;;;;;39.22;36.58;;;11.60;99.90;;;;;;5093858;28;20043;-70
2022/10/04 18:08:33;;;;;;;35.67;33.35;;;11.60;99.90;;;;;;5095096;28;20385;-70
2022/10/04 18:11:06;;;;;;;44.00;40.63;;;11.50;99.90;;;;;;5095000;28;20036;-71
2022/10/04 18:14:16;;;;;;;51.28;48.20;;;11.40;99.90;;;;;;5093396;28;20056;-70
2022/10/04 18:16:53;;;;;;;1507.15;756.47;;;11.40;99.90;;;;;;5071777;28;20123;-77
2022/10/04 18:19:28;;;;;;;1999.90;999.90;;;11.30;99.90;;;;;;5095049;28;20035;-74
2022/10/04 18:22:16;;;;;;;333.17;311.05;;;11.20;99.90;;;;;;5094702;28;20571;-71
2022/10/04 18:25:18;;;;;;;304.20;279.67;;;11.10;99.90;;;;;;5094007;28;20468;-71
2022/10/04 18:28:05;;;;;;;244.95;229.93;;;11.00;99.90;;;;;;5097757;28;20508;-71
2022/10/04 18:30:52;;;;;;;229.50;216.40;;;11.00;99.90;;;;;;5098379;28;20040;-71
2022/10/04 18:33:41;;;;;;;185.20;173.50;;;10.90;99.90;;;;;;5098666;28;20033;-70
2022/10/04 18:36:16;;;;;;;190.27;178.45;;;10.90;99.90;;;;;;5091513;28;20533;-70
2022/10/04 18:38:44;;;;;;;170.52;159.90;;;10.80;99.90;;;;;;5098078;28;20063;-70
2022/10/04 18:41:20;;;;;;;173.63;162.70;;;10.70;99.90;;;;;;5098156;28;20111;-71
2022/10/04 18:44:11;;;;;;;169.50;159.38;;;10.60;99.90;;;;;;5101911;28;20714;-75
2022/10/04 18:46:39;;;;;;;189.27;177.77;;;10.50;99.90;;;;;;5097497;28;20597;-74
2022/10/04 18:49:29;;;;;;;186.35;175.52;;;10.50;99.90;;;;;;5097593;28;20500;-75
2022/10/04 18:52:11;;;;;;;200.40;188.52;;;10.40;99.90;;;;;;5098173;28;20074;-75
2022/10/04 18:54:56;;;;;;;190.38;179.05;;;10.40;99.90;;;;;;5097983;28;20028;-71
2022/10/04 19:04:01;;;;;;;165.07;155.05;;;10.30;99.90;;;;;;5118346;28;20040;-71
2022/10/04 19:06:32;;;;;;;161.05;151.68;;;10.30;99.90;;;;;;5103798;27;20520;-74
2022/10/04 19:09:06;;;;;;;143.90;135.43;;;10.30;99.90;;;;;;5118997;28;20039;-73
2022/10/04 19:11:44;;;;;;;161.55;151.85;;;10.30;99.90;;;;;;5118307;28;20039;-79
2022/10/04 19:14:28;;;;;;;157.20;147.05;;;10.20;99.90;;;;;;5117731;28;20024;-72
2022/10/04 19:17:11;;;;;;;164.00;153.82;;;10.10;99.90;;;;;;5117184;28;20120;-70
2022/10/04 19:20:02;;;;;;;180.73;168.32;;;10.10;99.90;;;;;;5118142;28;20107;-70
2022/10/04 19:22:49;;;;;;;226.40;207.68;;;10.00;99.90;;;;;;5117885;27;20062;-70
2022/10/04 19:25:29;;;;;;;183.20;171.23;;;10.00;99.90;;;;;;5117474;28;20036;-70
2022/10/04 19:28:25;;;;;;;155.15;144.55;;;9.90;99.90;;;;;;5114524;28;20141;-69
2022/10/04 19:31:06;;;;;;;1999.90;999.90;;;9.90;99.90;;;;;;5117862;28;20036;-71
2022/10/04 19:33:46;;;;;;;83.53;75.55;;;9.80;99.90;;;;;;5117717;28;20058;-70
2022/10/04 19:36:45;;;;;;;2.95;2.85;;;9.70;99.90;;;;;;5117250;28;20032;-70
2022/10/04 19:39:26;;;;;;;4.22;4.05;;;9.70;99.90;;;;;;5102231;27;20048;-70
2022/10/04 19:42:09;;;;;;;3.17;3.08;;;9.60;99.90;;;;;;5117921;28;20032;-71
2022/10/04 19:44:47;;;;;;;2.88;2.78;;;9.50;99.90;;;;;;5117941;28;20481;-70
2022/10/04 19:47:35;;;;;;;2.95;2.85;;;9.50;99.90;;;;;;5117702;28;20031;-70
2022/10/04 19:50:17;;;;;;;2.78;2.67;;;9.50;99.90;;;;;;5117669;28;20074;-71
2022/10/04 19:52:46;;;;;;;3.15;3.05;;;9.50;99.90;;;;;;5118755;28;20103;-71
2022/10/04 19:55:19;;;;;;;3.00;2.90;;;9.50;99.90;;;;;;5117656;28;20032;-71
2022/10/04 19:57:57;;;;;;;2.90;2.80;;;9.40;99.90;;;;;;5117331;28;20025;-71
2022/10/04 20:00:22;;;;;;;4.10;4.00;;;9.30;99.90;;;;;;5117571;28;20566;-70
2022/10/04 20:02:48;;;;;;;5.15;4.95;;;9.40;99.90;;;;;;5117441;28;20170;-70
2022/10/04 20:05:23;;;;;;;5.97;5.78;;;9.40;99.90;;;;;;5115667;28;20137;-70
2022/10/04 20:07:50;;;;;;;6.28;6.07;;;9.40;99.90;;;;;;5115974;28;20032;-69
2022/10/04 20:10:34;;;;;;;6.90;6.60;;;9.30;99.90;;;;;;5117296;28;20166;-69
2022/10/04 20:13:20;;;;;;;6.88;6.57;;;9.30;99.90;;;;;;5117297;28;20032;-69
2022/10/04 20:15:59;;;;;;;1999.90;999.90;;;9.30;99.90;;;;;;5114774;28;20040;-69
2022/10/04 20:18:30;;;;;;;1999.90;999.90;;;9.20;99.90;;;;;;5117105;28;20478;-69
2022/10/04 20:20:56;;;;;;;1999.90;999.90;;;9.20;99.90;;;;;;5116766;28;20040;-69
2022/10/04 20:23:47;;;;;;;1999.90;999.90;;;9.30;99.90;;;;;;5117092;28;20149;-69
2022/10/04 20:26:51;;;;;;;1999.90;999.90;;;9.20;99.90;;;;;;5116528;27;20528;-69
2022/10/04 20:29:50;;;;;;;1999.90;999.90;;;9.20;99.90;;;;;;5106667;28;20044;-69
2022/10/04 20:32:32;;;;;;;1999.90;999.90;;;9.20;99.90;;;;;;5116014;28;20036;-69
2022/10/04 20:35:00;;;;;;;1999.90;999.90;;;9.10;99.90;;;;;;5114449;27;20096;-69
2022/10/04 20:37:44;;;;;;;1999.90;999.90;;;9.10;99.90;;;;;;5112330;28;20032;-69
2022/10/04 20:40:25;;;;;;;1999.90;999.90;;;9.00;99.90;;;;;;5116188;28;20502;-69
2022/10/04 20:43:12;;;;;;;1999.90;999.90;;;9.00;99.90;;;;;;5116004;27;20121;-69
2022/10/04 20:45:50;;;;;;;1999.90;999.90;;;8.90;99.90;;;;;;5115078;28;20166;-69
2022/10/04 20:48:21;;;;;;;1999.90;999.90;;;8.90;99.90;;;;;;5116133;27;20024;-69
2022/10/04 20:50:51;;;;;;;1999.90;999.90;;;8.90;99.90;;;;;;5114855;28;20032;-69
2022/10/04 20:53:20;;;;;;;1999.90;999.90;;;8.90;99.90;;;;;;5115807;27;20090;-69
2022/10/04 20:55:46;;;;;;;1999.90;999.90;;;8.80;99.90;;;;;;5115170;27;20055;-69
2022/10/04 20:58:27;;;;;;;1999.90;999.90;;;8.80;99.90;;;;;;5115395;27;20024;-69
2022/10/04 21:00:58;;;;;;;1999.90;999.90;;;8.70;99.90;;;;;;5115760;28;20111;-69
2022/10/04 21:03:24;;;;;;;1999.90;999.90;;;8.70;99.90;;;;;;5115562;28;20032;-69
2022/10/04 21:06:09;;;;;;;1999.90;999.90;;;8.60;99.90;;;;;;5115029;28;20028;-69
2022/10/04 21:08:36;;;;;;;1999.90;999.90;;;8.70;99.90;;;;;;5115753;28;20056;-69
2022/10/04 21:11:05;;;;;;;1999.90;999.90;;;8.60;99.90;;;;;;5115368;28;20028;-69
2022/10/04 21:13:45;;;;;;;1999.90;999.90;;;8.70;99.90;;;;;;5114099;28;20113;-69
2022/10/04 21:16:30;;;;;;;1999.90;999.90;;;8.70;99.90;;;;;;5114480;28;20036;-69
2022/10/04 21:19:42;;;;;;;1999.90;999.90;;;8.70;99.90;;;;;;5122308;27;20099;-69
2022/10/04 21:22:14;;;;;;;1999.90;999.90;;;8.60;99.90;;;;;;5114357;27;20493;-69
2022/10/04 21:24:49;;;;;;;1999.90;999.90;;;8.60;99.90;;;;;;5114723;27;20038;-68
2022/10/04 21:27:35;;;;;;;1999.90;999.90;;;8.60;99.90;;;;;;5117466;28;20123;-69
2022/10/04 21:30:06;;;;;;;1999.90;999.90;;;8.60;99.90;;;;;;5115771;28;20124;-69
2022/10/04 21:32:35;;;;;;;1999.90;999.90;;;8.50;99.90;;;;;;5115234;27;20028;-69
2022/10/04 21:35:02;;;;;;;1999.90;999.90;;;8.50;99.90;;;;;;5114793;28;20512;-69
2022/10/04 21:37:28;;;;;;;1999.90;999.90;;;8.40;99.90;;;;;;5115345;28;20116;-69
2022/10/04 21:39:54;;;;;;;1999.90;999.90;;;8.40;99.90;;;;;;5115464;28;20032;-69
2022/10/04 21:42:21;;;;;;;1999.90;999.90;;;8.40;99.90;;;;;;5115365;28;20041;-69
2022/10/04 21:44:46;;;;;;;1999.90;999.90;;;8.40;99.90;;;;;;5114952;28;20533;-69
2022/10/04 21:47:12;;;;;;;1999.90;999.90;;;8.40;99.90;;;;;;5113653;28;20036;-69
2022/10/04 21:49:38;;;;;;;1999.90;999.90;;;8.30;99.90;;;;;;5115801;28;20101;-70
2022/10/04 21:52:04;;;;;;;1999.90;999.90;;;8.30;99.90;;;;;;5115351;28;20036;-70
2022/10/04 21:54:30;;;;;;;1999.90;999.90;;;8.30;99.90;;;;;;5114923;28;20475;-70
2022/10/04 21:56:55;;;;;;;1999.90;999.90;;;8.30;99.90;;;;;;5114855;28;20040;-69
2022/10/04 21:59:21;;;;;;;1999.90;999.90;;;8.20;99.90;;;;;;5115701;28;20028;-70
2022/10/04 22:17:18;;;;;;;1999.90;999.90;;;8.10;99.90;;;;;;5587490;22;20046;-68
2022/10/04 22:19:44;;;;;;;1999.90;999.90;;;8.10;99.90;;;;;;5048792;28;20038;-68
2022/10/04 22:22:14;;;;;;;1999.90;999.90;;;8.10;99.90;;;;;;5054259;28;20367;-68
2022/10/04 22:24:40;;;;;;;1999.90;999.90;;;8.00;99.90;;;;;;5053771;28;20060;-68
2022/10/04 22:27:17;;;;;;;1999.90;999.90;;;8.00;99.90;;;;;;5044710;28;20044;-68
2022/10/04 22:29:43;;;;;;;1999.90;999.90;;;8.00;99.90;;;;;;5035832;28;20170;-68
2022/10/04 22:32:20;;;;;;;1999.90;999.90;;;8.00;99.90;;;;;;5034169;28;20113;-68
2022/10/04 22:34:45;;;;;;;1999.90;999.90;;;8.00;99.90;;;;;;5034033;28;20022;-68
2022/10/04 22:37:11;;;;;;;1999.90;999.90;;;8.10;99.90;;;;;;5033273;28;20480;-68
2022/10/04 22:39:37;;;;;;;1999.90;999.90;;;8.10;99.90;;;;;;5032275;28;20037;-68
2022/10/04 22:42:03;;;;;;;1999.90;999.90;;;8.30;99.90;;;;;;5032712;28;20030;-68
2022/10/04 22:44:34;;;;;;;1999.90;999.90;;;8.30;99.90;;;;;;5032701;28;20038;-68
2022/10/04 22:47:01;;;;;;;1999.90;999.90;;;8.30;99.90;;;;;;5034449;28;20085;-68
2022/10/04 22:49:34;;;;;;;1999.90;999.90;;;8.20;99.90;;;;;;5032659;28;20030;-68
2022/10/04 22:52:05;;;;;;;1999.90;999.90;;;8.10;99.90;;;;;;5034757;28;20030;-68
2022/10/04 22:54:32;;;;;;;1999.90;999.90;;;8.00;99.90;;;;;;5032364;28;20045;-68
2022/10/04 22:56:59;;;;;;;1999.90;999.90;;;7.90;99.90;;;;;;5033949;28;20053;-68
2022/10/04 22:59:37;;;;;;;1999.90;999.90;;;7.90;99.90;;;;;;5036418;28;20057;-69
2022/10/04 23:02:13;;;;;;;1999.90;999.90;;;7.80;99.90;;;;;;5034050;28;20037;-70
2022/10/04 23:04:40;;;;;;;1999.90;999.90;;;7.80;99.90;;;;;;5034176;28;20030;-69
2022/10/04 23:07:05;;;;;;;1999.90;999.90;;;7.80;99.90;;;;;;5033440;28;20065;-70
2022/10/04 23:09:31;;;;;;;1999.90;999.90;;;7.80;99.90;;;;;;5034820;28;20061;-70
2022/10/04 23:11:56;;;;;;;1999.90;999.90;;;7.90;99.90;;;;;;5033652;28;20080;-69
2022/10/04 23:14:22;;;;;;;1999.90;999.90;;;7.90;99.90;;;;;;5036889;28;20034;-70
2022/10/04 23:16:48;;;;;;;1999.90;999.90;;;7.90;99.90;;;;;;5036514;28;20092;-70
2022/10/04 23:19:20;;;;;;;1999.90;999.90;;;7.90;99.90;;;;;;5037543;28;20483;-70
2022/10/04 23:21:47;;;;;;;1999.90;999.90;;;7.80;99.90;;;;;;5037783;28;20029;-70
2022/10/04 23:24:21;;;;;;;1999.90;999.90;;;7.80;99.90;;;;;;5037056;28;20041;-70
2022/10/04 23:26:55;;;;;;;1999.90;999.90;;;7.80;99.90;;;;;;5036436;28;20038;-70
2022/10/04 23:29:24;;;;;;;1999.90;999.90;;;7.80;99.90;;;;;;5037032;28;20061;-70
2022/10/04 23:31:51;;;;;;;1999.90;999.90;;;7.80;99.90;;;;;;5036898;28;20030;-70
2022/10/04 23:34:37;;;;;;;1999.90;999.90;;;7.70;99.90;;;;;;5035450;28;20096;-70
2022/10/04 23:37:03;;;;;;;1999.90;999.90;;;7.70;99.90;;;;;;5036890;28;20602;-70
2022/10/04 23:39:33;;;;;;;1999.90;999.90;;;7.60;99.90;;;;;;5036783;28;20061;-70
2022/10/04 23:42:04;;;;;;;1999.90;999.90;;;7.60;99.90;;;;;;5037403;28;20029;-70
2022/10/04 23:44:34;;;;;;;1999.90;999.90;;;7.60;99.90;;;;;;5037263;28;20109;-70
2022/10/04 23:47:00;;;;;;;1999.90;999.90;;;7.50;99.90;;;;;;5036111;28;20120;-70
2022/10/04 23:49:26;;;;;;;1999.90;999.90;;;7.60;99.90;;;;;;5036934;28;20121;-70
2022/10/04 23:51:58;;;;;;;1999.90;999.90;;;7.60;99.90;;;;;;5036791;28;20038;-70
2022/10/04 23:54:24;;;;;;;1999.90;999.90;;;7.50;99.90;;;;;;5036620;28;20038;-70
2022/10/04 23:56:50;;;;;;;1999.90;999.90;;;7.50;99.90;;;;;;5036096;28;20519;-70
2022/10/04 23:59:19;;;;;;;1999.90;999.90;;;7.50;99.90;;;;;;5036394;28;20088;-70
